CheckWX is a tool to help pilots better visualize weather data.  It is not intended as a substitute for an official pre-flight weather briefing.

06:33:05 UTC

KMCX METAR
White County Airport
Monticello, Indiana, USA
Current

18 mins ago

KMCX 260615Z AUTO 03011G15KT 5SM -SN OVC007 00/00 A2997 RMK AO2 T00001005
Observed
Feb-26 @ 06:15 UTC
Wind
  • 030° at 11 KTS
  • Gusting to 15 KTS
Visibility
5 SM
Flight Rules
IFR
Conditions
Light Snow
Cloud Levels
  • Overcast at 700' AGL
Temperature
C / 32°F
Dewpoint
-1°C / 30°F
Humidity
93%
Altimeter
29.97" Hg
Pressure
1014.92 hPa
Previous

38 mins ago

KMCX 260555Z AUTO 03010G15KT 5SM -SN OVC007 00/00 A2997 RMK AO2 T00001005 10005 20000
Observed
Feb-26 @ 05:55 UTC
Wind
  • 030° at 10 KTS
  • Gusting to 15 KTS
Visibility
5 SM
Flight Rules
IFR
Conditions
Light Snow
Cloud Levels
  • Overcast at 700' AGL
Temperature
C / 32°F
Dewpoint
-1°C / 30°F
Humidity
93%
Altimeter
29.97" Hg
Pressure
1014.92 hPa
Previous

58 mins ago

KMCX 260535Z AUTO 03011G15KT 7SM -SN OVC005 00/00 A2996 RMK AO2 T00001005
Observed
Feb-26 @ 05:35 UTC
Wind
  • 030° at 11 KTS
  • Gusting to 15 KTS
Visibility
7 SM
Flight Rules
IFR
Conditions
Light Snow
Cloud Levels
  • Overcast at 500' AGL
Temperature
C / 32°F
Dewpoint
-1°C / 30°F
Humidity
93%
Altimeter
29.96" Hg
Pressure
1014.52 hPa